sensor_id;sensor_type;location;lat;lon;timestamp;P1;durP1;ratioP1;P2;durP2;ratioP2
25049;SDS011;13046;49.814;9.918;2023-03-11T00:01:30;2.50;;;2.30;;
25049;SDS011;13046;49.814;9.918;2023-03-11T00:03:57;2.70;;;2.50;;
25049;SDS011;13046;49.814;9.918;2023-03-11T00:06:24;2.22;;;2.03;;
25049;SDS011;13046;49.814;9.918;2023-03-11T00:08:50;2.60;;;2.17;;
25049;SDS011;13046;49.814;9.918;2023-03-11T00:11:16;2.78;;;2.38;;
25049;SDS011;13046;49.814;9.918;2023-03-11T00:13:43;3.22;;;2.92;;
25049;SDS011;13046;49.814;9.918;2023-03-11T00:16:09;2.63;;;2.42;;
25049;SDS011;13046;49.814;9.918;2023-03-11T00:18:35;2.28;;;2.08;;
25049;SDS011;13046;49.814;9.918;2023-03-11T00:21:02;2.30;;;2.20;;
25049;SDS011;13046;49.814;9.918;2023-03-11T00:23:28;2.60;;;2.15;;
25049;SDS011;13046;49.814;9.918;2023-03-11T00:25:54;2.15;;;2.00;;
25049;SDS011;13046;49.814;9.918;2023-03-11T00:28:20;2.15;;;1.98;;
25049;SDS011;13046;49.814;9.918;2023-03-11T00:30:49;2.00;;;1.90;;
25049;SDS011;13046;49.814;9.918;2023-03-11T00:33:15;1.92;;;1.80;;
25049;SDS011;13046;49.814;9.918;2023-03-11T00:35:41;1.77;;;1.67;;
25049;SDS011;13046;49.814;9.918;2023-03-11T00:38:10;2.15;;;1.88;;
25049;SDS011;13046;49.814;9.918;2023-03-11T00:40:37;2.28;;;2.00;;
25049;SDS011;13046;49.814;9.918;2023-03-11T00:43:03;2.05;;;1.95;;
25049;SDS011;13046;49.814;9.918;2023-03-11T00:45:28;2.08;;;1.90;;
25049;SDS011;13046;49.814;9.918;2023-03-11T00:47:55;2.10;;;2.00;;
25049;SDS011;13046;49.814;9.918;2023-03-11T00:50:26;1.88;;;1.77;;
25049;SDS011;13046;49.814;9.918;2023-03-11T00:52:53;1.92;;;1.83;;
25049;SDS011;13046;49.814;9.918;2023-03-11T00:55:23;3.10;;;1.80;;
25049;SDS011;13046;49.814;9.918;2023-03-11T00:57:50;3.28;;;2.10;;
25049;SDS011;13046;49.814;9.918;2023-03-11T01:00:17;2.25;;;2.10;;
25049;SDS011;13046;49.814;9.918;2023-03-11T01:02:44;4.28;;;3.88;;
25049;SDS011;13046;49.814;9.918;2023-03-11T01:05:10;2.83;;;2.63;;
25049;SDS011;13046;49.814;9.918;2023-03-11T01:07:36;2.40;;;2.20;;
25049;SDS011;13046;49.814;9.918;2023-03-11T01:10:03;3.33;;;2.78;;
25049;SDS011;13046;49.814;9.918;2023-03-11T01:12:30;2.20;;;2.10;;
25049;SDS011;13046;49.814;9.918;2023-03-11T01:14:56;2.70;;;2.50;;
25049;SDS011;13046;49.814;9.918;2023-03-11T01:17:22;2.70;;;2.50;;
25049;SDS011;13046;49.814;9.918;2023-03-11T01:19:48;3.38;;;3.05;;
25049;SDS011;13046;49.814;9.918;2023-03-11T01:22:14;2.60;;;2.40;;
25049;SDS011;13046;49.814;9.918;2023-03-11T01:24:40;2.90;;;2.70;;
25049;SDS011;13046;49.814;9.918;2023-03-11T01:27:06;2.67;;;2.47;;
25049;SDS011;13046;49.814;9.918;2023-03-11T01:29:32;2.90;;;2.60;;
25049;SDS011;13046;49.814;9.918;2023-03-11T01:31:58;2.50;;;2.30;;
25049;SDS011;13046;49.814;9.918;2023-03-11T01:34:25;2.47;;;2.28;;
25049;SDS011;13046;49.814;9.918;2023-03-11T01:36:51;2.85;;;2.65;;
25049;SDS011;13046;49.814;9.918;2023-03-11T01:39:18;3.55;;;2.22;;
25049;SDS011;13046;49.814;9.918;2023-03-11T01:41:44;2.88;;;2.28;;
25049;SDS011;13046;49.814;9.918;2023-03-11T01:44:11;2.95;;;2.22;;
25049;SDS011;13046;49.814;9.918;2023-03-11T01:49:25;2.60;;;2.40;;
25049;SDS011;13046;49.814;9.918;2023-03-11T01:51:53;2.08;;;1.98;;
25049;SDS011;13046;49.814;9.918;2023-03-11T01:54:24;3.63;;;2.25;;
25049;SDS011;13046;49.814;9.918;2023-03-11T01:56:52;2.40;;;2.20;;
25049;SDS011;13046;49.814;9.918;2023-03-11T01:59:23;2.58;;;2.38;;
25049;SDS011;13046;49.814;9.918;2023-03-11T02:04:35;6.18;;;4.03;;
25049;SDS011;13046;49.814;9.918;2023-03-11T02:07:02;7.90;;;5.63;;
25049;SDS011;13046;49.814;9.918;2023-03-11T02:09:28;4.30;;;3.78;;
25049;SDS011;13046;49.814;9.918;2023-03-11T02:11:55;3.00;;;2.78;;
25049;SDS011;13046;49.814;9.918;2023-03-11T02:14:23;3.75;;;3.45;;
25049;SDS011;13046;49.814;9.918;2023-03-11T02:16:51;3.03;;;2.80;;
25049;SDS011;13046;49.814;9.918;2023-03-11T02:22:02;2.58;;;2.38;;
25049;SDS011;13046;49.814;9.918;2023-03-11T02:24:41;2.83;;;2.63;;
25049;SDS011;13046;49.814;9.918;2023-03-11T02:27:13;3.20;;;2.90;;
25049;SDS011;13046;49.814;9.918;2023-03-11T02:29:40;2.85;;;2.55;;
25049;SDS011;13046;49.814;9.918;2023-03-11T02:32:07;3.33;;;2.50;;
25049;SDS011;13046;49.814;9.918;2023-03-11T02:34:39;2.53;;;2.33;;
25049;SDS011;13046;49.814;9.918;2023-03-11T02:37:08;4.28;;;2.60;;
25049;SDS011;13046;49.814;9.918;2023-03-11T02:39:36;3.78;;;2.20;;
25049;SDS011;13046;49.814;9.918;2023-03-11T02:42:04;2.30;;;2.17;;
25049;SDS011;13046;49.814;9.918;2023-03-11T02:44:31;1.80;;;1.70;;
25049;SDS011;13046;49.814;9.918;2023-03-11T02:46:58;2.83;;;2.30;;
25049;SDS011;13046;49.814;9.918;2023-03-11T02:49:24;3.03;;;1.90;;
25049;SDS011;13046;49.814;9.918;2023-03-11T02:51:50;3.08;;;1.92;;
25049;SDS011;13046;49.814;9.918;2023-03-11T02:54:17;2.08;;;1.95;;
25049;SDS011;13046;49.814;9.918;2023-03-11T02:56:43;1.90;;;1.80;;
25049;SDS011;13046;49.814;9.918;2023-03-11T02:59:09;5.07;;;2.15;;
25049;SDS011;13046;49.814;9.918;2023-03-11T03:01:36;4.32;;;2.10;;
25049;SDS011;13046;49.814;9.918;2023-03-11T03:04:02;2.10;;;2.00;;
25049;SDS011;13046;49.814;9.918;2023-03-11T03:06:30;2.20;;;1.80;;
25049;SDS011;13046;49.814;9.918;2023-03-11T03:08:56;1.80;;;1.70;;
25049;SDS011;13046;49.814;9.918;2023-03-11T03:11:23;3.47;;;2.10;;
25049;SDS011;13046;49.814;9.918;2023-03-11T03:13:49;2.55;;;2.35;;
25049;SDS011;13046;49.814;9.918;2023-03-11T03:16:15;2.22;;;1.98;;
25049;SDS011;13046;49.814;9.918;2023-03-11T03:18:41;5.20;;;3.10;;
25049;SDS011;13046;49.814;9.918;2023-03-11T03:21:08;3.72;;;3.40;;
25049;SDS011;13046;49.814;9.918;2023-03-11T03:23:34;4.05;;;2.42;;
25049;SDS011;13046;49.814;9.918;2023-03-11T03:26:02;4.05;;;2.28;;
25049;SDS011;13046;49.814;9.918;2023-03-11T03:28:29;1.58;;;1.48;;
25049;SDS011;13046;49.814;9.918;2023-03-11T03:30:55;4.57;;;1.98;;
25049;SDS011;13046;49.814;9.918;2023-03-11T03:33:21;2.28;;;2.15;;
25049;SDS011;13046;49.814;9.918;2023-03-11T03:35:47;6.10;;;2.22;;
25049;SDS011;13046;49.814;9.918;2023-03-11T03:38:18;3.35;;;2.25;;
25049;SDS011;13046;49.814;9.918;2023-03-11T03:40:46;4.20;;;2.78;;
25049;SDS011;13046;49.814;9.918;2023-03-11T03:43:15;3.85;;;2.25;;
25049;SDS011;13046;49.814;9.918;2023-03-11T03:45:43;2.42;;;1.75;;
25049;SDS011;13046;49.814;9.918;2023-03-11T03:48:09;3.72;;;2.15;;
25049;SDS011;13046;49.814;9.918;2023-03-11T03:50:40;5.57;;;2.05;;
25049;SDS011;13046;49.814;9.918;2023-03-11T03:53:10;4.38;;;2.38;;
25049;SDS011;13046;49.814;9.918;2023-03-11T03:55:36;4.05;;;2.20;;
25049;SDS011;13046;49.814;9.918;2023-03-11T03:58:02;3.75;;;1.92;;
25049;SDS011;13046;49.814;9.918;2023-03-11T04:00:33;4.07;;;1.98;;
25049;SDS011;13046;49.814;9.918;2023-03-11T04:03:01;6.78;;;2.30;;
25049;SDS011;13046;49.814;9.918;2023-03-11T04:05:38;2.50;;;2.20;;
25049;SDS011;13046;49.814;9.918;2023-03-11T04:08:04;6.75;;;4.18;;
25049;SDS011;13046;49.814;9.918;2023-03-11T04:10:30;3.20;;;2.10;;
25049;SDS011;13046;49.814;9.918;2023-03-11T04:12:56;3.78;;;2.05;;
25049;SDS011;13046;49.814;9.918;2023-03-11T04:15:22;3.17;;;2.88;;
25049;SDS011;13046;49.814;9.918;2023-03-11T04:17:50;4.18;;;2.13;;
25049;SDS011;13046;49.814;9.918;2023-03-11T04:20:16;2.30;;;2.10;;
25049;SDS011;13046;49.814;9.918;2023-03-11T04:22:46;6.18;;;2.30;;
25049;SDS011;13046;49.814;9.918;2023-03-11T04:25:12;2.70;;;2.38;;
25049;SDS011;13046;49.814;9.918;2023-03-11T04:27:38;2.88;;;2.08;;
25049;SDS011;13046;49.814;9.918;2023-03-11T04:30:08;2.92;;;2.55;;
25049;SDS011;13046;49.814;9.918;2023-03-11T04:32:34;4.13;;;2.15;;
25049;SDS011;13046;49.814;9.918;2023-03-11T04:35:02;2.58;;;2.38;;
25049;SDS011;13046;49.814;9.918;2023-03-11T04:37:29;6.13;;;2.58;;
25049;SDS011;13046;49.814;9.918;2023-03-11T04:39:55;3.53;;;2.35;;
25049;SDS011;13046;49.814;9.918;2023-03-11T04:42:22;3.80;;;2.55;;
25049;SDS011;13046;49.814;9.918;2023-03-11T04:44:48;4.32;;;2.42;;
25049;SDS011;13046;49.814;9.918;2023-03-11T04:47:14;4.32;;;2.70;;
25049;SDS011;13046;49.814;9.918;2023-03-11T04:49:41;4.50;;;2.70;;
25049;SDS011;13046;49.814;9.918;2023-03-11T04:52:07;6.95;;;2.15;;
25049;SDS011;13046;49.814;9.918;2023-03-11T04:54:33;2.72;;;2.47;;
25049;SDS011;13046;49.814;9.918;2023-03-11T04:56:59;3.10;;;2.55;;
25049;SDS011;13046;49.814;9.918;2023-03-11T04:59:27;5.88;;;2.45;;
25049;SDS011;13046;49.814;9.918;2023-03-11T05:01:53;6.32;;;2.40;;
25049;SDS011;13046;49.814;9.918;2023-03-11T05:04:19;4.80;;;2.75;;
25049;SDS011;13046;49.814;9.918;2023-03-11T05:06:45;3.42;;;2.58;;
25049;SDS011;13046;49.814;9.918;2023-03-11T05:09:15;5.32;;;2.88;;
25049;SDS011;13046;49.814;9.918;2023-03-11T05:11:41;4.68;;;2.72;;
25049;SDS011;13046;49.814;9.918;2023-03-11T05:14:08;4.95;;;2.80;;
25049;SDS011;13046;49.814;9.918;2023-03-11T05:16:34;4.28;;;2.75;;
25049;SDS011;13046;49.814;9.918;2023-03-11T05:19:02;3.60;;;2.50;;
25049;SDS011;13046;49.814;9.918;2023-03-11T05:21:48;5.13;;;2.85;;
25049;SDS011;13046;49.814;9.918;2023-03-11T05:24:14;3.78;;;2.58;;
25049;SDS011;13046;49.814;9.918;2023-03-11T05:26:40;4.80;;;2.75;;
25049;SDS011;13046;49.814;9.918;2023-03-11T05:29:07;4.53;;;2.85;;
25049;SDS011;13046;49.814;9.918;2023-03-11T05:31:33;3.85;;;3.03;;
25049;SDS011;13046;49.814;9.918;2023-03-11T05:34:00;3.85;;;3.00;;
25049;SDS011;13046;49.814;9.918;2023-03-11T05:36:26;5.35;;;2.85;;
25049;SDS011;13046;49.814;9.918;2023-03-11T05:38:52;9.55;;;2.92;;
25049;SDS011;13046;49.814;9.918;2023-03-11T05:41:18;15.20;;;3.75;;
25049;SDS011;13046;49.814;9.918;2023-03-11T05:43:45;3.20;;;2.90;;
25049;SDS011;13046;49.814;9.918;2023-03-11T05:46:12;3.35;;;3.05;;
25049;SDS011;13046;49.814;9.918;2023-03-11T05:48:39;3.13;;;2.88;;
25049;SDS011;13046;49.814;9.918;2023-03-11T05:51:06;5.72;;;2.80;;
25049;SDS011;13046;49.814;9.918;2023-03-11T05:53:32;3.30;;;3.00;;
25049;SDS011;13046;49.814;9.918;2023-03-11T05:55:59;5.43;;;3.55;;
25049;SDS011;13046;49.814;9.918;2023-03-11T05:58:26;6.20;;;5.00;;
25049;SDS011;13046;49.814;9.918;2023-03-11T06:00:53;43.47;;;22.40;;
25049;SDS011;13046;49.814;9.918;2023-03-11T06:03:19;14.95;;;10.15;;
25049;SDS011;13046;49.814;9.918;2023-03-11T06:05:49;51.25;;;22.27;;
25049;SDS011;13046;49.814;9.918;2023-03-11T06:08:16;39.53;;;19.75;;
25049;SDS011;13046;49.814;9.918;2023-03-11T06:10:42;11.75;;;5.60;;
25049;SDS011;13046;49.814;9.918;2023-03-11T06:13:08;28.00;;;16.27;;
25049;SDS011;13046;49.814;9.918;2023-03-11T06:15:44;11.50;;;7.00;;
25049;SDS011;13046;49.814;9.918;2023-03-11T06:18:10;4.00;;;3.42;;
25049;SDS011;13046;49.814;9.918;2023-03-11T06:20:37;7.20;;;3.47;;
25049;SDS011;13046;49.814;9.918;2023-03-11T06:23:03;5.47;;;3.25;;
25049;SDS011;13046;49.814;9.918;2023-03-11T06:25:29;5.15;;;2.83;;
25049;SDS011;13046;49.814;9.918;2023-03-11T06:27:55;5.32;;;3.58;;
25049;SDS011;13046;49.814;9.918;2023-03-11T06:30:22;5.38;;;3.42;;
25049;SDS011;13046;49.814;9.918;2023-03-11T06:33:06;6.15;;;3.50;;
25049;SDS011;13046;49.814;9.918;2023-03-11T06:35:33;7.10;;;3.85;;
25049;SDS011;13046;49.814;9.918;2023-03-11T06:37:59;7.30;;;3.65;;
25049;SDS011;13046;49.814;9.918;2023-03-11T06:40:25;6.65;;;3.70;;
25049;SDS011;13046;49.814;9.918;2023-03-11T06:42:51;4.25;;;3.78;;
25049;SDS011;13046;49.814;9.918;2023-03-11T06:45:20;5.07;;;3.00;;
25049;SDS011;13046;49.814;9.918;2023-03-11T06:47:47;5.07;;;3.33;;
25049;SDS011;13046;49.814;9.918;2023-03-11T06:50:13;5.22;;;2.85;;
25049;SDS011;13046;49.814;9.918;2023-03-11T06:52:39;18.45;;;4.88;;
25049;SDS011;13046;49.814;9.918;2023-03-11T06:55:07;5.78;;;3.67;;
25049;SDS011;13046;49.814;9.918;2023-03-11T06:57:34;4.68;;;4.03;;
25049;SDS011;13046;49.814;9.918;2023-03-11T07:00:03;5.22;;;3.92;;
25049;SDS011;13046;49.814;9.918;2023-03-11T07:02:33;3.80;;;3.00;;
25049;SDS011;13046;49.814;9.918;2023-03-11T07:04:59;3.97;;;3.00;;
25049;SDS011;13046;49.814;9.918;2023-03-11T07:07:25;4.75;;;3.70;;
25049;SDS011;13046;49.814;9.918;2023-03-11T07:09:53;8.25;;;3.50;;
25049;SDS011;13046;49.814;9.918;2023-03-11T07:12:19;5.90;;;4.03;;
25049;SDS011;13046;49.814;9.918;2023-03-11T07:14:47;10.23;;;6.38;;
25049;SDS011;13046;49.814;9.918;2023-03-11T07:17:13;21.00;;;11.63;;
25049;SDS011;13046;49.814;9.918;2023-03-11T07:22:12;12.63;;;6.85;;
25049;SDS011;13046;49.814;9.918;2023-03-11T07:24:39;19.85;;;12.05;;
25049;SDS011;13046;49.814;9.918;2023-03-11T07:27:05;10.70;;;6.20;;
25049;SDS011;13046;49.814;9.918;2023-03-11T07:29:31;5.55;;;3.70;;
25049;SDS011;13046;49.814;9.918;2023-03-11T07:31:57;5.97;;;4.93;;
25049;SDS011;13046;49.814;9.918;2023-03-11T07:34:23;4.25;;;3.60;;
25049;SDS011;13046;49.814;9.918;2023-03-11T07:36:49;5.22;;;3.58;;
25049;SDS011;13046;49.814;9.918;2023-03-11T07:39:16;4.60;;;3.13;;
25049;SDS011;13046;49.814;9.918;2023-03-11T07:41:42;4.63;;;3.05;;
25049;SDS011;13046;49.814;9.918;2023-03-11T07:44:10;4.03;;;3.28;;
25049;SDS011;13046;49.814;9.918;2023-03-11T07:46:36;4.95;;;3.42;;
25049;SDS011;13046;49.814;9.918;2023-03-11T07:49:02;3.30;;;3.00;;
25049;SDS011;13046;49.814;9.918;2023-03-11T07:51:30;4.32;;;3.45;;
25049;SDS011;13046;49.814;9.918;2023-03-11T07:53:56;3.38;;;2.75;;
25049;SDS011;13046;49.814;9.918;2023-03-11T07:56:23;3.10;;;2.90;;
25049;SDS011;13046;49.814;9.918;2023-03-11T07:58:49;5.68;;;2.78;;
25049;SDS011;13046;49.814;9.918;2023-03-11T08:01:16;5.32;;;4.10;;
25049;SDS011;13046;49.814;9.918;2023-03-11T08:03:43;7.93;;;3.17;;
25049;SDS011;13046;49.814;9.918;2023-03-11T08:06:17;3.88;;;2.75;;
25049;SDS011;13046;49.814;9.918;2023-03-11T08:08:44;5.25;;;3.28;;
25049;SDS011;13046;49.814;9.918;2023-03-11T08:11:11;3.63;;;2.58;;
25049;SDS011;13046;49.814;9.918;2023-03-11T08:13:40;5.65;;;4.05;;
25049;SDS011;13046;49.814;9.918;2023-03-11T08:16:06;7.50;;;3.47;;
25049;SDS011;13046;49.814;9.918;2023-03-11T08:18:33;5.00;;;3.67;;
25049;SDS011;13046;49.814;9.918;2023-03-11T08:21:03;3.33;;;3.03;;
25049;SDS011;13046;49.814;9.918;2023-03-11T08:23:29;3.88;;;2.53;;
25049;SDS011;13046;49.814;9.918;2023-03-11T08:25:55;5.38;;;3.05;;
25049;SDS011;13046;49.814;9.918;2023-03-11T08:28:21;3.13;;;2.45;;
25049;SDS011;13046;49.814;9.918;2023-03-11T08:30:47;3.42;;;3.13;;
25049;SDS011;13046;49.814;9.918;2023-03-11T08:33:13;8.27;;;2.90;;
25049;SDS011;13046;49.814;9.918;2023-03-11T08:35:39;4.78;;;3.22;;
25049;SDS011;13046;49.814;9.918;2023-03-11T08:38:05;4.63;;;3.67;;
25049;SDS011;13046;49.814;9.918;2023-03-11T08:40:31;5.93;;;2.97;;
25049;SDS011;13046;49.814;9.918;2023-03-11T08:42:57;4.85;;;2.47;;
25049;SDS011;13046;49.814;9.918;2023-03-11T08:45:23;2.88;;;2.42;;
25049;SDS011;13046;49.814;9.918;2023-03-11T08:47:50;3.00;;;2.70;;
25049;SDS011;13046;49.814;9.918;2023-03-11T08:50:16;4.57;;;2.90;;
25049;SDS011;13046;49.814;9.918;2023-03-11T08:52:43;2.63;;;2.10;;
25049;SDS011;13046;49.814;9.918;2023-03-11T08:55:11;3.53;;;2.40;;
25049;SDS011;13046;49.814;9.918;2023-03-11T08:57:38;3.10;;;2.38;;
25049;SDS011;13046;49.814;9.918;2023-03-11T09:00:05;2.95;;;2.47;;
25049;SDS011;13046;49.814;9.918;2023-03-11T09:02:32;4.75;;;2.30;;
25049;SDS011;13046;49.814;9.918;2023-03-11T09:04:58;5.10;;;2.55;;
25049;SDS011;13046;49.814;9.918;2023-03-11T09:07:24;2.72;;;2.25;;
25049;SDS011;13046;49.814;9.918;2023-03-11T09:09:50;2.40;;;2.20;;
25049;SDS011;13046;49.814;9.918;2023-03-11T09:12:16;1.90;;;1.60;;
25049;SDS011;13046;49.814;9.918;2023-03-11T09:14:43;2.40;;;2.20;;
25049;SDS011;13046;49.814;9.918;2023-03-11T09:17:09;4.65;;;2.65;;
25049;SDS011;13046;49.814;9.918;2023-03-11T09:19:36;3.13;;;2.22;;
25049;SDS011;13046;49.814;9.918;2023-03-11T09:22:02;5.38;;;2.92;;
25049;SDS011;13046;49.814;9.918;2023-03-11T09:24:29;4.47;;;2.22;;
25049;SDS011;13046;49.814;9.918;2023-03-11T09:26:57;3.00;;;2.42;;
25049;SDS011;13046;49.814;9.918;2023-03-11T09:29:23;2.20;;;2.03;;
25049;SDS011;13046;49.814;9.918;2023-03-11T09:31:49;5.38;;;2.50;;
25049;SDS011;13046;49.814;9.918;2023-03-11T09:34:15;3.28;;;2.83;;
25049;SDS011;13046;49.814;9.918;2023-03-11T09:36:41;3.85;;;3.05;;
25049;SDS011;13046;49.814;9.918;2023-03-11T09:39:07;5.30;;;2.53;;
25049;SDS011;13046;49.814;9.918;2023-03-11T09:41:37;4.72;;;3.08;;
25049;SDS011;13046;49.814;9.918;2023-03-11T09:44:07;4.68;;;2.72;;
25049;SDS011;13046;49.814;9.918;2023-03-11T09:51:48;3.22;;;2.70;;
25049;SDS011;13046;49.814;9.918;2023-03-11T09:54:16;4.07;;;2.47;;
25049;SDS011;13046;49.814;9.918;2023-03-11T09:56:42;3.80;;;2.97;;
25049;SDS011;13046;49.814;9.918;2023-03-11T09:59:13;4.43;;;2.80;;
25049;SDS011;13046;49.814;9.918;2023-03-11T10:01:41;3.88;;;2.95;;
25049;SDS011;13046;49.814;9.918;2023-03-11T10:06:40;2.60;;;2.03;;
25049;SDS011;13046;49.814;9.918;2023-03-11T10:11:57;2.85;;;2.30;;
25049;SDS011;13046;49.814;9.918;2023-03-11T10:24:35;4.63;;;3.38;;
25049;SDS011;13046;49.814;9.918;2023-03-11T10:27:12;3.35;;;2.95;;
25049;SDS011;13046;49.814;9.918;2023-03-11T10:32:31;2.45;;;2.25;;
25049;SDS011;13046;49.814;9.918;2023-03-11T10:35:03;2.88;;;2.53;;
25049;SDS011;13046;49.814;9.918;2023-03-11T10:37:38;4.53;;;3.05;;
25049;SDS011;13046;49.814;9.918;2023-03-11T10:40:15;4.78;;;2.55;;
25049;SDS011;13046;49.814;9.918;2023-03-11T10:42:43;4.03;;;2.33;;
25049;SDS011;13046;49.814;9.918;2023-03-11T10:45:13;3.67;;;2.13;;
25049;SDS011;13046;49.814;9.918;2023-03-11T10:47:40;5.75;;;2.60;;
25049;SDS011;13046;49.814;9.918;2023-03-11T10:50:07;6.13;;;2.90;;
25049;SDS011;13046;49.814;9.918;2023-03-11T10:55:32;3.55;;;2.25;;
25049;SDS011;13046;49.814;9.918;2023-03-11T10:58:10;3.80;;;2.33;;
25049;SDS011;13046;49.814;9.918;2023-03-11T11:00:37;7.18;;;2.10;;
25049;SDS011;13046;49.814;9.918;2023-03-11T11:03:03;2.47;;;2.20;;
25049;SDS011;13046;49.814;9.918;2023-03-11T11:05:31;7.05;;;2.78;;
25049;SDS011;13046;49.814;9.918;2023-03-11T11:08:02;7.57;;;2.60;;
25049;SDS011;13046;49.814;9.918;2023-03-11T11:10:28;2.70;;;2.38;;
25049;SDS011;13046;49.814;9.918;2023-03-11T11:15:49;2.78;;;2.15;;
25049;SDS011;13046;49.814;9.918;2023-03-11T11:20:39;13.07;;;4.30;;
25049;SDS011;13046;49.814;9.918;2023-03-11T11:23:29;2.88;;;2.58;;
25049;SDS011;13046;49.814;9.918;2023-03-11T11:25:56;4.43;;;2.28;;
25049;SDS011;13046;49.814;9.918;2023-03-11T11:28:23;2.65;;;2.00;;
25049;SDS011;13046;49.814;9.918;2023-03-11T11:30:53;2.55;;;2.15;;
25049;SDS011;13046;49.814;9.918;2023-03-11T11:33:24;3.50;;;2.20;;
25049;SDS011;13046;49.814;9.918;2023-03-11T11:35:55;2.00;;;1.90;;
25049;SDS011;13046;49.814;9.918;2023-03-11T11:38:23;2.97;;;2.33;;
25049;SDS011;13046;49.814;9.918;2023-03-11T11:40:49;3.17;;;2.00;;
25049;SDS011;13046;49.814;9.918;2023-03-11T11:43:17;4.32;;;2.03;;
25049;SDS011;13046;49.814;9.918;2023-03-11T11:45:54;2.83;;;1.90;;
25049;SDS011;13046;49.814;9.918;2023-03-11T11:48:23;4.05;;;2.65;;
25049;SDS011;13046;49.814;9.918;2023-03-11T11:50:50;3.75;;;2.67;;
25049;SDS011;13046;49.814;9.918;2023-03-11T11:53:36;4.18;;;2.72;;
25049;SDS011;13046;49.814;9.918;2023-03-11T11:56:03;2.70;;;2.35;;
25049;SDS011;13046;49.814;9.918;2023-03-11T11:58:29;3.30;;;2.83;;
25049;SDS011;13046;49.814;9.918;2023-03-11T12:05:57;3.92;;;2.42;;
25049;SDS011;13046;49.814;9.918;2023-03-11T12:18:42;4.30;;;2.30;;
25049;SDS011;13046;49.814;9.918;2023-03-11T12:24:07;10.55;;;3.50;;
25049;SDS011;13046;49.814;9.918;2023-03-11T12:26:37;8.32;;;4.05;;
25049;SDS011;13046;49.814;9.918;2023-03-11T12:29:13;8.27;;;4.90;;
25049;SDS011;13046;49.814;9.918;2023-03-11T12:31:44;9.65;;;4.60;;
25049;SDS011;13046;49.814;9.918;2023-03-11T12:34:11;5.88;;;2.80;;
25049;SDS011;13046;49.814;9.918;2023-03-11T12:36:43;3.47;;;2.60;;
25049;SDS011;13046;49.814;9.918;2023-03-11T12:39:24;4.07;;;2.10;;
25049;SDS011;13046;49.814;9.918;2023-03-11T12:44:38;4.90;;;2.38;;
25049;SDS011;13046;49.814;9.918;2023-03-11T12:49:35;3.42;;;2.47;;
25049;SDS011;13046;49.814;9.918;2023-03-11T12:54:34;3.10;;;2.80;;
25049;SDS011;13046;49.814;9.918;2023-03-11T12:57:02;5.03;;;2.75;;
25049;SDS011;13046;49.814;9.918;2023-03-11T13:02:02;4.47;;;2.58;;
25049;SDS011;13046;49.814;9.918;2023-03-11T13:04:32;4.13;;;2.35;;
25049;SDS011;13046;49.814;9.918;2023-03-11T13:09:37;4.10;;;3.35;;
25049;SDS011;13046;49.814;9.918;2023-03-11T13:12:31;3.67;;;2.70;;
25049;SDS011;13046;49.814;9.918;2023-03-11T13:15:12;4.13;;;2.72;;
25049;SDS011;13046;49.814;9.918;2023-03-11T13:17:36;4.40;;;2.50;;
25049;SDS011;13046;49.814;9.918;2023-03-11T13:20:02;4.45;;;2.55;;
25049;SDS011;13046;49.814;9.918;2023-03-11T13:23:06;5.53;;;3.67;;
25049;SDS011;13046;49.814;9.918;2023-03-11T13:25:31;2.60;;;2.40;;
25049;SDS011;13046;49.814;9.918;2023-03-11T13:28:13;2.85;;;2.30;;
25049;SDS011;13046;49.814;9.918;2023-03-11T13:35:43;3.22;;;2.92;;
25049;SDS011;13046;49.814;9.918;2023-03-11T13:40:57;6.47;;;2.80;;
25049;SDS011;13046;49.814;9.918;2023-03-11T13:43:25;7.35;;;4.22;;
25049;SDS011;13046;49.814;9.918;2023-03-11T13:45:52;4.93;;;2.92;;
25049;SDS011;13046;49.814;9.918;2023-03-11T13:48:21;3.13;;;2.30;;
25049;SDS011;13046;49.814;9.918;2023-03-11T13:50:58;7.00;;;2.40;;
25049;SDS011;13046;49.814;9.918;2023-03-11T13:53:29;2.33;;;2.13;;
25049;SDS011;13046;49.814;9.918;2023-03-11T13:55:57;4.90;;;2.63;;
25049;SDS011;13046;49.814;9.918;2023-03-11T13:58:24;4.05;;;3.05;;
25049;SDS011;13046;49.814;9.918;2023-03-11T14:00:54;3.33;;;3.00;;
25049;SDS011;13046;49.814;9.918;2023-03-11T14:03:21;8.10;;;2.97;;
25049;SDS011;13046;49.814;9.918;2023-03-11T14:05:54;3.10;;;2.55;;
25049;SDS011;13046;49.814;9.918;2023-03-11T14:08:37;2.53;;;2.10;;
25049;SDS011;13046;49.814;9.918;2023-03-11T14:13:42;2.95;;;2.70;;
25049;SDS011;13046;49.814;9.918;2023-03-11T14:16:13;3.85;;;2.70;;
25049;SDS011;13046;49.814;9.918;2023-03-11T14:18:41;5.13;;;2.63;;
25049;SDS011;13046;49.814;9.918;2023-03-11T14:21:14;6.80;;;3.22;;
25049;SDS011;13046;49.814;9.918;2023-03-11T14:23:42;9.90;;;3.00;;
25049;SDS011;13046;49.814;9.918;2023-03-11T14:26:13;4.53;;;3.42;;
25049;SDS011;13046;49.814;9.918;2023-03-11T14:28:41;4.10;;;2.92;;
25049;SDS011;13046;49.814;9.918;2023-03-11T14:31:18;4.43;;;2.83;;
25049;SDS011;13046;49.814;9.918;2023-03-11T14:33:53;5.15;;;2.78;;
25049;SDS011;13046;49.814;9.918;2023-03-11T14:36:19;3.58;;;3.10;;
25049;SDS011;13046;49.814;9.918;2023-03-11T14:38:45;5.10;;;2.80;;
25049;SDS011;13046;49.814;9.918;2023-03-11T14:41:12;5.50;;;3.75;;
25049;SDS011;13046;49.814;9.918;2023-03-11T14:43:40;6.45;;;3.38;;
25049;SDS011;13046;49.814;9.918;2023-03-11T14:46:09;7.85;;;3.45;;
25049;SDS011;13046;49.814;9.918;2023-03-11T14:48:40;6.50;;;3.73;;
25049;SDS011;13046;49.814;9.918;2023-03-11T14:51:22;4.10;;;2.88;;
25049;SDS011;13046;49.814;9.918;2023-03-11T14:53:52;5.90;;;3.25;;
25049;SDS011;13046;49.814;9.918;2023-03-11T14:56:23;4.38;;;3.28;;
25049;SDS011;13046;49.814;9.918;2023-03-11T15:01:23;6.63;;;3.00;;
25049;SDS011;13046;49.814;9.918;2023-03-11T15:06:19;4.63;;;3.72;;
25049;SDS011;13046;49.814;9.918;2023-03-11T15:08:47;9.27;;;4.18;;
25049;SDS011;13046;49.814;9.918;2023-03-11T15:13:41;9.73;;;6.53;;
25049;SDS011;13046;49.814;9.918;2023-03-11T15:18:53;12.55;;;4.88;;
25049;SDS011;13046;49.814;9.918;2023-03-11T15:21:20;8.85;;;5.25;;
25049;SDS011;13046;49.814;9.918;2023-03-11T15:23:48;6.68;;;3.75;;
25049;SDS011;13046;49.814;9.918;2023-03-11T15:26:24;3.88;;;3.47;;
25049;SDS011;13046;49.814;9.918;2023-03-11T15:28:52;7.90;;;4.03;;
25049;SDS011;13046;49.814;9.918;2023-03-11T15:33:44;13.85;;;8.05;;
25049;SDS011;13046;49.814;9.918;2023-03-11T15:36:30;7.65;;;3.47;;
25049;SDS011;13046;49.814;9.918;2023-03-11T15:39:10;9.48;;;3.70;;
25049;SDS011;13046;49.814;9.918;2023-03-11T15:41:38;6.70;;;4.40;;
25049;SDS011;13046;49.814;9.918;2023-03-11T15:44:04;9.25;;;4.90;;
25049;SDS011;13046;49.814;9.918;2023-03-11T15:46:32;4.10;;;3.63;;
25049;SDS011;13046;49.814;9.918;2023-03-11T15:48:58;6.55;;;4.32;;
25049;SDS011;13046;49.814;9.918;2023-03-11T15:51:24;5.80;;;3.95;;
25049;SDS011;13046;49.814;9.918;2023-03-11T15:53:50;5.88;;;3.45;;
25049;SDS011;13046;49.814;9.918;2023-03-11T15:56:19;4.75;;;4.18;;
25049;SDS011;13046;49.814;9.918;2023-03-11T15:58:47;3.72;;;3.42;;
25049;SDS011;13046;49.814;9.918;2023-03-11T16:01:13;7.35;;;3.40;;
25049;SDS011;13046;49.814;9.918;2023-03-11T16:03:39;3.53;;;3.08;;
25049;SDS011;13046;49.814;9.918;2023-03-11T16:06:05;4.90;;;3.22;;
25049;SDS011;13046;49.814;9.918;2023-03-11T16:08:31;11.85;;;6.35;;
25049;SDS011;13046;49.814;9.918;2023-03-11T16:10:58;3.55;;;3.20;;
25049;SDS011;13046;49.814;9.918;2023-03-11T16:13:24;5.35;;;3.22;;
25049;SDS011;13046;49.814;9.918;2023-03-11T16:15:50;6.30;;;4.22;;
25049;SDS011;13046;49.814;9.918;2023-03-11T16:18:17;5.32;;;3.67;;
25049;SDS011;13046;49.814;9.918;2023-03-11T16:20:45;3.65;;;3.10;;
25049;SDS011;13046;49.814;9.918;2023-03-11T16:23:30;5.50;;;3.55;;
25049;SDS011;13046;49.814;9.918;2023-03-11T16:26:01;5.60;;;3.67;;
25049;SDS011;13046;49.814;9.918;2023-03-11T16:28:27;4.88;;;3.47;;